Time;durP1;ratioP1;P1;durP2;ratioP2;P2;SDS_P1;SDS_P2;PMS_P1;PMS_P2;Temp;Humidity;BMP_temperature;BMP_pressure;BME280_temperature;BME280_humidity;BME280_pressure;Samples;Min_cycle;Max_cycle;Signal;HPM_P1;HPM_P2
2021/12/22 00:00:56;;;;;;;34.75;24.67;;;10.10;71.60;;;;;;5015244;28;20068;-73
2021/12/22 00:03:23;;;;;;;33.75;24.48;;;10.10;71.60;;;;;;5015120;28;20053;-73
2021/12/22 00:05:51;;;;;;;33.80;23.20;;;10.00;71.60;;;;;;4997429;28;20105;-71
2021/12/22 00:08:17;;;;;;;32.45;22.23;;;10.00;71.60;;;;;;5014614;28;20080;-70
2021/12/22 00:10:45;;;;;;;37.65;23.95;;;10.00;71.50;;;;;;5013733;28;20365;-70
2021/12/22 00:13:11;;;;;;;34.28;24.80;;;10.00;71.70;;;;;;5014935;28;20031;-70
2021/12/22 00:15:37;;;;;;;31.75;23.67;;;10.00;71.80;;;;;;5014853;28;20425;-71
2021/12/22 00:18:03;;;;;;;31.77;22.98;;;10.00;71.70;;;;;;5014624;28;20061;-71
2021/12/22 00:20:29;;;;;;;30.67;24.27;;;10.00;72.40;;;;;;5014657;28;20022;-70
2021/12/22 00:22:55;;;;;;;35.47;24.58;;;10.00;72.40;;;;;;4997147;28;20034;-70
2021/12/22 00:25:25;;;;;;;32.53;24.23;;;10.00;71.50;;;;;;5014580;28;20022;-70
2021/12/22 00:27:51;;;;;;;34.88;25.48;;;9.90;72.70;;;;;;5014725;28;20419;-70
2021/12/22 00:30:17;;;;;;;31.30;24.30;;;9.90;72.80;;;;;;5014560;28;20044;-71
2021/12/22 00:32:51;;;;;;;31.83;23.35;;;10.00;71.90;;;;;;4996915;28;20038;-70
2021/12/22 00:35:20;;;;;;;31.70;23.88;;;9.90;72.80;;;;;;5014445;28;20441;-70
2021/12/22 00:37:46;;;;;;;31.48;22.38;;;9.90;72.70;;;;;;4996681;28;20030;-72
2021/12/22 00:40:12;;;;;;;32.92;22.35;;;10.00;71.80;;;;;;5014510;28;20100;-71
2021/12/22 00:42:38;;;;;;;32.75;23.85;;;10.00;71.70;;;;;;5014439;28;20491;-69
2021/12/22 00:45:04;;;;;;;32.90;23.30;;;9.90;72.50;;;;;;5014359;28;20034;-70
2021/12/22 00:47:31;;;;;;;31.73;23.38;;;9.90;72.60;;;;;;5014191;28;20521;-70
2021/12/22 00:49:59;;;;;;;30.13;21.38;;;9.90;72.70;;;;;;5014059;28;20050;-71
2021/12/22 00:52:25;;;;;;;33.70;21.77;;;9.90;72.80;;;;;;5014231;28;20496;-69
2021/12/22 00:54:52;;;;;;;25.75;20.20;;;9.80;72.80;;;;;;5014220;28;20113;-70
2021/12/22 00:57:19;;;;;;;33.17;21.80;;;9.90;72.90;;;;;;5014096;28;20026;-71
2021/12/22 00:59:46;;;;;;;32.35;20.90;;;9.90;73.00;;;;;;5014002;28;20464;-71
2021/12/22 01:02:18;;;;;;;29.25;20.55;;;9.90;73.20;;;;;;5014002;28;20080;-70
2021/12/22 01:04:44;;;;;;;29.75;20.25;;;10.00;72.10;;;;;;5014038;28;20053;-70
2021/12/22 01:07:10;;;;;;;26.88;20.55;;;10.00;72.00;;;;;;4996509;28;20037;-71
2021/12/22 01:09:37;;;;;;;29.15;21.77;;;10.00;72.30;;;;;;4980147;28;20026;-71
2021/12/22 01:12:05;;;;;;;29.25;21.30;;;9.90;73.40;;;;;;4996182;28;20120;-72
2021/12/22 01:14:31;;;;;;;30.92;20.05;;;10.00;72.50;;;;;;5013924;28;20029;-70
2021/12/22 01:17:01;;;;;;;29.13;21.23;;;10.00;72.60;;;;;;4996189;28;20081;-71
2021/12/22 01:19:36;;;;;;;31.30;23.23;;;10.00;72.60;;;;;;5013539;28;20387;-70
2021/12/22 01:22:18;;;;;;;31.88;21.08;;;10.00;72.90;;;;;;5013793;28;20030;-71
2021/12/22 01:24:48;;;;;;;28.05;20.10;;;10.00;72.80;;;;;;4995988;28;20030;-68
2021/12/22 01:27:15;;;;;;;30.48;20.85;;;10.00;72.90;;;;;;4996739;28;20053;-71
2021/12/22 01:29:41;;;;;;;30.25;20.50;;;10.00;73.00;;;;;;5013523;28;20470;-69
2021/12/22 01:32:09;;;;;;;27.42;20.30;;;10.00;72.90;;;;;;4995751;28;20033;-70
2021/12/22 01:34:35;;;;;;;28.08;20.58;;;10.10;73.20;;;;;;5013569;28;20487;-70
2021/12/22 01:37:01;;;;;;;28.45;20.77;;;10.10;73.10;;;;;;5013560;28;20022;-72
2021/12/22 01:39:27;;;;;;;33.15;21.63;;;10.00;73.40;;;;;;5013511;28;20096;-73
2021/12/22 01:41:53;;;;;;;27.33;20.38;;;10.00;73.60;;;;;;4996062;28;20037;-72
2021/12/22 01:44:45;;;;;;;24.77;19.95;;;10.10;73.40;;;;;;5013446;28;20053;-70
2021/12/22 01:49:55;;;;;;;25.42;20.13;;;10.00;73.90;;;;;;5012844;28;20192;-70
2021/12/22 01:52:22;;;;;;;25.92;19.67;;;10.10;73.80;;;;;;5013199;28;20113;-71
2021/12/22 01:55:02;;;;;;;27.05;20.70;;;10.10;73.80;;;;;;5013267;28;20026;-72
2021/12/22 01:57:28;;;;;;;24.65;19.05;;;10.10;73.90;;;;;;4995472;28;20380;-70
2021/12/22 01:59:54;;;;;;;26.27;20.83;;;10.20;73.90;;;;;;5013082;28;20032;-69
2021/12/22 02:02:20;;;;;;;26.65;21.00;;;10.20;74.00;;;;;;5013148;28;20355;-73
2021/12/22 02:04:46;;;;;;;27.27;20.33;;;10.10;73.70;;;;;;5013072;28;20100;-72
2021/12/22 02:07:12;;;;;;;32.67;21.85;;;10.10;73.70;;;;;;4995645;28;20438;-71
2021/12/22 02:12:14;;;;;;;25.35;20.90;;;10.00;73.90;;;;;;5013217;28;20042;-70
2021/12/22 02:14:41;;;;;;;26.73;20.77;;;10.00;74.40;;;;;;5012985;28;20022;-69
2021/12/22 02:17:09;;;;;;;28.58;20.58;;;10.00;74.30;;;;;;5013013;28;20018;-70
2021/12/22 02:19:45;;;;;;;28.25;20.52;;;9.90;75.80;;;;;;5013080;28;20030;-70
2021/12/22 02:22:13;;;;;;;27.13;20.27;;;9.90;76.70;;;;;;5013078;28;20049;-71
2021/12/22 02:24:49;;;;;;;28.33;20.55;;;9.90;76.30;;;;;;5012890;28;20068;-71
2021/12/22 02:28:12;;;;;;;27.70;19.75;;;9.90;77.10;;;;;;4995314;28;20379;-72
2021/12/22 02:30:14;;;;;;;26.35;20.30;;;10.00;75.90;;;;;;5008812;28;20124;-71
2021/12/22 02:35:38;;;;;;;28.95;20.88;;;10.00;76.40;;;;;;5016975;28;20029;-70
2021/12/22 02:38:12;;;;;;;28.08;20.33;;;9.90;77.80;;;;;;5016625;28;20118;-72
2021/12/22 02:40:38;;;;;;;28.77;20.95;;;9.90;77.80;;;;;;5016502;28;20068;-71
2021/12/22 02:43:05;;;;;;;27.75;20.85;;;9.90;78.30;;;;;;5016790;28;20032;-70
2021/12/22 02:45:34;;;;;;;25.40;20.83;;;9.90;78.60;;;;;;5017082;28;20105;-71
2021/12/22 02:48:00;;;;;;;24.35;19.42;;;10.00;77.50;;;;;;5016999;28;20080;-69
2021/12/22 02:50:26;;;;;;;30.30;21.88;;;10.00;77.80;;;;;;5016441;28;20094;-70
2021/12/22 02:55:21;;;;;;;27.20;20.00;;;10.00;78.20;;;;;;5016329;28;20026;-71
2021/12/22 02:57:49;;;;;;;27.27;20.27;;;10.00;78.50;;;;;;5016310;28;20509;-71
2021/12/22 03:03:17;;;;;;;28.23;20.83;;;9.90;80.30;;;;;;5016496;28;20026;-71
2021/12/22 03:05:43;;;;;;;26.42;20.65;;;9.90;80.30;;;;;;5016304;28;20033;-72
2021/12/22 03:08:08;;;;;;;27.83;20.40;;;9.90;80.50;;;;;;5016273;28;20018;-72
2021/12/22 03:10:35;;;;;;;26.52;19.63;;;9.90;80.70;;;;;;5016071;28;20030;-70
2021/12/22 03:13:04;;;;;;;24.13;19.50;;;9.90;81.10;;;;;;5016208;28;20487;-69
2021/12/22 03:15:30;;;;;;;26.63;20.02;;;9.90;80.70;;;;;;5016113;28;20052;-71
2021/12/22 03:17:56;;;;;;;26.00;19.45;;;9.90;81.20;;;;;;5016069;28;20037;-73
2021/12/22 03:20:22;;;;;;;28.77;21.25;;;9.80;81.40;;;;;;5016116;28;20023;-73
2021/12/22 03:22:49;;;;;;;28.45;20.20;;;9.80;81.90;;;;;;5015869;28;20464;-74
2021/12/22 03:25:17;;;;;;;28.63;20.45;;;9.80;81.80;;;;;;5016059;28;20049;-74
2021/12/22 03:27:46;;;;;;;28.95;21.50;;;9.70;81.80;;;;;;5015723;28;20026;-73
2021/12/22 03:30:15;;;;;;;26.05;19.98;;;9.70;83.00;;;;;;5016055;28;20423;-74
2021/12/22 03:32:41;;;;;;;27.85;21.38;;;9.60;83.60;;;;;;5015579;28;20034;-75
2021/12/22 03:35:08;;;;;;;28.70;20.98;;;9.70;83.40;;;;;;5015580;28;20050;-75
2021/12/22 03:37:34;;;;;;;26.75;19.90;;;9.70;83.50;;;;;;5015559;28;20076;-76
2021/12/22 03:40:00;;;;;;;25.23;19.63;;;9.70;84.00;;;;;;5015756;28;20022;-75
2021/12/22 03:42:26;;;;;;;27.05;20.75;;;9.70;84.40;;;;;;5015672;28;20486;-75
2021/12/22 03:44:52;;;;;;;24.67;20.08;;;9.60;84.70;;;;;;5015562;28;20026;-75
2021/12/22 03:47:19;;;;;;;27.27;20.80;;;9.60;84.90;;;;;;5015545;28;20543;-75
2021/12/22 03:49:45;;;;;;;26.92;21.00;;;9.60;85.40;;;;;;5015330;28;20046;-75
2021/12/22 03:52:12;;;;;;;25.05;19.88;;;9.60;85.60;;;;;;4998016;28;20459;-75
2021/12/22 03:54:37;;;;;;;27.13;20.40;;;9.70;86.10;;;;;;5015487;28;20451;-75
2021/12/22 03:57:04;;;;;;;25.50;20.58;;;9.60;86.50;;;;;;5015538;28;20061;-75
2021/12/22 03:59:33;;;;;;;27.73;21.40;;;9.60;86.00;;;;;;4997845;28;20050;-74
2021/12/22 04:01:58;;;;;;;26.63;20.73;;;9.70;87.00;;;;;;4997618;28;20022;-75
2021/12/22 04:04:24;;;;;;;28.65;21.13;;;9.70;86.80;;;;;;4997589;28;20088;-74
2021/12/22 04:06:51;;;;;;;28.95;22.58;;;9.70;87.40;;;;;;5015406;28;20092;-75
2021/12/22 04:09:18;;;;;;;26.13;21.88;;;9.60;87.50;;;;;;5015162;28;20101;-73
2021/12/22 04:11:45;;;;;;;28.40;20.77;;;9.60;88.00;;;;;;5015037;28;20125;-75
2021/12/22 04:14:11;;;;;;;24.60;20.42;;;9.60;88.70;;;;;;5015204;28;20037;-76
2021/12/22 04:16:38;;;;;;;29.05;21.48;;;9.60;89.50;;;;;;4997341;28;20030;-75
2021/12/22 04:19:04;;;;;;;27.38;21.92;;;9.60;89.80;;;;;;5014986;28;20026;-76
2021/12/22 04:21:30;;;;;;;26.17;20.92;;;9.70;89.40;;;;;;5015203;28;20368;-76
2021/12/22 04:23:56;;;;;;;26.10;21.30;;;9.70;89.20;;;;;;5015342;28;20022;-75
2021/12/22 04:26:22;;;;;;;30.05;22.15;;;9.70;89.50;;;;;;4997508;28;20034;-76
2021/12/22 04:28:48;;;;;;;26.83;20.70;;;9.70;90.10;;;;;;5014811;28;20018;-74
2021/12/22 04:31:14;;;;;;;25.75;20.95;;;9.70;90.00;;;;;;5014717;28;20045;-73
2021/12/22 04:33:40;;;;;;;26.95;21.58;;;9.70;89.60;;;;;;4997265;28;20041;-74
2021/12/22 04:36:05;;;;;;;27.65;21.23;;;9.80;90.00;;;;;;5014546;28;20065;-75
2021/12/22 04:38:31;;;;;;;33.63;22.23;;;9.80;89.80;;;;;;5014458;28;20517;-72
2021/12/22 04:40:57;;;;;;;24.75;19.73;;;9.80;89.90;;;;;;5014273;28;20118;-70
2021/12/22 04:43:23;;;;;;;25.95;20.38;;;9.80;90.00;;;;;;5014344;28;20018;-71
2021/12/22 04:45:49;;;;;;;26.42;20.05;;;9.80;89.90;;;;;;5014309;28;20034;-72
2021/12/22 04:48:14;;;;;;;25.15;20.23;;;9.80;90.00;;;;;;5014201;28;20113;-71
2021/12/22 04:50:40;;;;;;;26.23;20.13;;;9.90;89.70;;;;;;5013975;28;20133;-71
2021/12/22 04:53:22;;;;;;;24.42;19.05;;;9.90;89.60;;;;;;4996541;28;20041;-74
2021/12/22 04:55:47;;;;;;;26.10;20.67;;;10.00;88.70;;;;;;5013650;28;20053;-74
2021/12/22 04:58:13;;;;;;;28.05;21.33;;;10.00;88.70;;;;;;5014054;28;20072;-73
2021/12/22 05:00:40;;;;;;;25.63;19.83;;;10.10;88.70;;;;;;5014094;28;20395;-73
2021/12/22 05:03:06;;;;;;;29.00;20.05;;;10.10;89.20;;;;;;5014059;28;20040;-73
2021/12/22 05:05:34;;;;;;;25.10;20.50;;;10.10;88.90;;;;;;4996296;28;20072;-73
2021/12/22 05:08:00;;;;;;;25.63;19.33;;;10.10;88.30;;;;;;4996279;28;20037;-71
2021/12/22 05:10:27;;;;;;;27.67;19.88;;;10.10;88.70;;;;;;5013799;28;20163;-71
2021/12/22 05:12:54;;;;;;;27.40;20.48;;;10.00;88.90;;;;;;5013918;28;20041;-73
2021/12/22 05:15:22;;;;;;;23.05;19.85;;;10.10;89.10;;;;;;5014081;28;20077;-74
2021/12/22 05:20:22;;;;;;;19.98;15.77;;;10.10;88.90;;;;;;5014193;28;20429;-75
2021/12/22 05:22:48;;;;;;;29.88;22.05;;;10.10;89.10;;;;;;4996066;28;20029;-73
2021/12/22 05:25:14;;;;;;;27.33;20.38;;;10.10;89.00;;;;;;4996083;28;20033;-72
2021/12/22 05:27:41;;;;;;;27.00;21.65;;;10.20;89.20;;;;;;5013517;28;20018;-73
2021/12/22 05:30:09;;;;;;;26.15;21.20;;;10.10;88.90;;;;;;5013533;28;20048;-71
2021/12/22 05:32:36;;;;;;;25.20;20.42;;;10.10;89.30;;;;;;5013418;28;20030;-71
2021/12/22 05:35:05;;;;;;;28.05;20.95;;;10.10;89.70;;;;;;5013482;28;20025;-74
2021/12/22 05:37:31;;;;;;;35.50;24.02;;;10.10;89.70;;;;;;5013391;28;20084;-71
2021/12/22 05:39:57;;;;;;;29.63;22.00;;;10.10;89.90;;;;;;5013277;28;20026;-74
2021/12/22 05:42:27;;;;;;;29.20;22.70;;;10.00;89.60;;;;;;4995744;28;20443;-73
2021/12/22 05:44:53;;;;;;;27.20;22.48;;;9.90;90.50;;;;;;5013738;28;20030;-74
2021/12/22 05:47:19;;;;;;;30.52;23.70;;;9.90;90.70;;;;;;5013290;28;20499;-70
2021/12/22 05:49:45;;;;;;;29.75;23.33;;;9.80;90.70;;;;;;5013047;28;20502;-71
2021/12/22 05:52:11;;;;;;;27.58;22.83;;;9.80;90.80;;;;;;5013286;28;20046;-72
2021/12/22 05:54:38;;;;;;;27.70;22.05;;;9.90;91.10;;;;;;5013545;28;20487;-71
2021/12/22 05:57:04;;;;;;;29.25;23.15;;;9.90;91.00;;;;;;4995679;28;20088;-72
2021/12/22 05:59:30;;;;;;;31.25;23.77;;;9.90;90.80;;;;;;4995204;28;20033;-71
2021/12/22 06:01:55;;;;;;;28.42;23.42;;;9.90;90.70;;;;;;5013044;28;20379;-69
2021/12/22 06:04:21;;;;;;;29.30;24.65;;;10.00;90.40;;;;;;4995497;28;20505;-70
2021/12/22 06:06:47;;;;;;;28.50;22.77;;;10.00;90.40;;;;;;5012563;28;20029;-73
2021/12/22 06:09:13;;;;;;;30.23;24.70;;;10.00;90.40;;;;;;5012708;28;20033;-74
2021/12/22 06:11:39;;;;;;;31.73;23.55;;;10.00;90.20;;;;;;5013037;28;20479;-73
2021/12/22 06:14:04;;;;;;;30.77;24.42;;;10.00;90.30;;;;;;5013328;28;20032;-72
2021/12/22 06:16:30;;;;;;;33.58;24.70;;;10.00;90.20;;;;;;5012980;28;20493;-73
2021/12/22 06:19:01;;;;;;;30.80;24.55;;;10.10;90.10;;;;;;4995122;28;20029;-74
2021/12/22 06:21:27;;;;;;;31.02;24.55;;;10.00;90.30;;;;;;4995421;28;20404;-75
2021/12/22 06:23:53;;;;;;;28.80;23.95;;;10.00;90.30;;;;;;4995400;28;20471;-74
2021/12/22 06:26:18;;;;;;;28.83;23.95;;;10.00;90.30;;;;;;5013309;28;20076;-75
2021/12/22 06:28:44;;;;;;;30.63;24.75;;;10.00;90.50;;;;;;4995358;28;20083;-72
2021/12/22 06:31:12;;;;;;;29.88;24.35;;;10.00;90.40;;;;;;5013185;28;20037;-74
2021/12/22 06:33:37;;;;;;;30.02;23.63;;;10.00;90.40;;;;;;4995840;28;20084;-75
2021/12/22 06:36:03;;;;;;;28.02;22.42;;;10.00;90.10;;;;;;4995688;28;20030;-75
2021/12/22 06:38:29;;;;;;;28.52;22.95;;;10.00;90.10;;;;;;5013453;28;20041;-74
2021/12/22 06:40:55;;;;;;;33.53;23.67;;;10.10;90.10;;;;;;5013488;28;20030;-77
2021/12/22 06:43:21;;;;;;;32.58;23.88;;;10.10;90.00;;;;;;5012952;28;20026;-74
2021/12/22 06:45:46;;;;;;;33.42;21.70;;;10.10;90.00;;;;;;5012918;28;20357;-75
2021/12/22 06:48:12;;;;;;;34.92;21.67;;;10.10;89.90;;;;;;5014439;28;20034;-75
2021/12/22 06:50:38;;;;;;;30.52;23.60;;;10.10;90.00;;;;;;5032288;28;20087;-75
2021/12/22 06:53:04;;;;;;;27.58;22.40;;;10.10;90.00;;;;;;5032356;28;20471;-75
2021/12/22 06:55:29;;;;;;;29.77;23.10;;;10.00;90.10;;;;;;5032716;28;20367;-73
2021/12/22 06:57:56;;;;;;;28.45;23.55;;;10.00;90.20;;;;;;5032226;28;20029;-71
2021/12/22 07:00:23;;;;;;;27.13;23.75;;;9.90;90.80;;;;;;5032179;28;20017;-75
2021/12/22 07:02:49;;;;;;;28.67;22.30;;;9.80;90.50;;;;;;5032259;28;20116;-73
2021/12/22 07:05:14;;;;;;;30.63;22.25;;;9.80;90.70;;;;;;5033081;28;20108;-69
2021/12/22 07:07:41;;;;;;;28.05;22.45;;;9.80;90.70;;;;;;5026174;28;20109;-73
2021/12/22 07:10:10;;;;;;;29.77;21.63;;;9.70;90.60;;;;;;5017517;28;20029;-73
2021/12/22 07:12:41;;;;;;;25.33;21.25;;;9.70;90.60;;;;;;5032575;28;20021;-72
2021/12/22 07:15:10;;;;;;;29.25;22.50;;;9.70;90.50;;;;;;5013286;28;20060;-70
2021/12/22 07:17:37;;;;;;;25.05;21.45;;;9.80;90.60;;;;;;5012462;28;20025;-68
2021/12/22 07:20:05;;;;;;;27.38;22.40;;;9.90;90.60;;;;;;5015517;28;20175;-69
2021/12/22 07:22:32;;;;;;;28.30;22.05;;;10.00;89.70;;;;;;5016341;28;20184;-70
2021/12/22 07:24:58;;;;;;;26.35;21.33;;;10.00;89.80;;;;;;5016381;28;20065;-70
2021/12/22 07:27:23;;;;;;;25.15;20.17;;;10.10;89.60;;;;;;5016492;28;20434;-71
2021/12/22 07:29:49;;;;;;;29.63;22.25;;;10.10;89.40;;;;;;5016167;28;20053;-69
2021/12/22 07:32:15;;;;;;;26.55;21.38;;;10.10;89.10;;;;;;5016035;28;20057;-68
2021/12/22 07:34:40;;;;;;;26.58;21.60;;;10.20;89.20;;;;;;5016108;28;20083;-69
2021/12/22 07:37:21;;;;;;;27.83;20.73;;;10.20;88.90;;;;;;4998532;28;20041;-69
2021/12/22 07:39:48;;;;;;;23.90;20.50;;;10.20;88.40;;;;;;5016213;28;20034;-68
2021/12/22 07:42:13;;;;;;;25.30;19.88;;;10.20;88.40;;;;;;5015733;28;20022;-69
2021/12/22 07:44:39;;;;;;;31.52;21.27;;;10.30;87.80;;;;;;5015703;28;20037;-69
2021/12/22 07:47:05;;;;;;;29.23;20.73;;;10.20;87.30;;;;;;4997834;28;20108;-75
2021/12/22 07:49:31;;;;;;;25.13;20.52;;;10.30;87.60;;;;;;4997173;28;20447;-74
2021/12/22 07:51:57;;;;;;;31.63;21.80;;;10.30;87.40;;;;;;5015517;28;20033;-74
2021/12/22 07:54:23;;;;;;;29.70;20.55;;;10.40;87.30;;;;;;5015581;28;20534;-72
2021/12/22 07:56:50;;;;;;;29.27;19.10;;;10.50;87.00;;;;;;4997355;28;20069;-74
2021/12/22 07:59:16;;;;;;;27.98;19.58;;;10.50;85.20;;;;;;4997237;28;20057;-71
2021/12/22 08:01:42;;;;;;;27.42;18.83;;;10.50;85.80;;;;;;4997664;28;20620;-69
2021/12/22 08:04:07;;;;;;;30.05;20.13;;;10.50;85.40;;;;;;5015178;28;20049;-73
2021/12/22 08:06:33;;;;;;;30.13;20.33;;;10.60;85.40;;;;;;5015199;28;20486;-70
2021/12/22 08:09:00;;;;;;;33.00;21.75;;;10.60;85.70;;;;;;4997603;28;20045;-74
2021/12/22 08:11:26;;;;;;;26.58;19.75;;;10.70;84.80;;;;;;5015141;28;20034;-74
2021/12/22 08:13:52;;;;;;;28.92;19.58;;;10.80;85.50;;;;;;5015371;28;20022;-74
2021/12/22 08:16:17;;;;;;;31.13;20.02;;;10.80;85.40;;;;;;5014872;28;20203;-74
2021/12/22 08:18:43;;;;;;;26.45;20.60;;;10.90;85.20;;;;;;5015018;28;20376;-74
2021/12/22 08:21:09;;;;;;;26.02;19.20;;;10.80;84.70;;;;;;5015171;28;20383;-74
2021/12/22 08:23:35;;;;;;;29.77;19.88;;;10.90;84.60;;;;;;4997374;28;20563;-71
2021/12/22 08:26:01;;;;;;;28.15;20.15;;;10.90;84.40;;;;;;5014985;28;20022;-73
2021/12/22 08:28:26;;;;;;;26.55;19.25;;;11.00;84.40;;;;;;5014780;28;20372;-72
2021/12/22 08:30:52;;;;;;;29.45;19.25;;;11.00;84.20;;;;;;5013543;28;20030;-71
2021/12/22 08:33:24;;;;;;;28.10;20.95;;;11.00;83.40;;;;;;5014800;28;20033;-70
2021/12/22 08:38:50;;;;;;;27.00;19.70;;;11.00;83.30;;;;;;5014882;28;20095;-68
2021/12/22 08:41:30;;;;;;;25.88;18.75;;;11.00;82.50;;;;;;4997179;28;20494;-69
2021/12/22 08:44:00;;;;;;;28.27;18.38;;;11.00;81.90;;;;;;5014990;28;20033;-72
2021/12/22 08:46:27;;;;;;;29.27;18.80;;;11.10;82.20;;;;;;4997496;28;20026;-70
2021/12/22 08:48:52;;;;;;;28.65;19.25;;;11.10;82.20;;;;;;5014419;28;20036;-70
2021/12/22 08:51:18;;;;;;;26.25;18.13;;;11.20;81.70;;;;;;5014490;28;20042;-70
2021/12/22 08:53:44;;;;;;;26.50;17.75;;;11.20;81.50;;;;;;5014392;28;20098;-70
2021/12/22 08:56:10;;;;;;;22.80;16.92;;;11.20;80.80;;;;;;5014428;28;20534;-71
2021/12/22 08:58:36;;;;;;;23.65;16.80;;;11.30;80.70;;;;;;5014320;28;20382;-70
2021/12/22 09:01:02;;;;;;;24.75;16.52;;;11.30;80.40;;;;;;5014752;28;20022;-70
2021/12/22 09:03:28;;;;;;;21.17;14.50;;;11.30;80.30;;;;;;4996318;28;20070;-69
2021/12/22 09:05:55;;;;;;;21.52;15.10;;;11.40;79.70;;;;;;5014119;28;20409;-71
2021/12/22 09:08:21;;;;;;;20.88;15.18;;;11.30;78.60;;;;;;5014184;28;20026;-69
2021/12/22 09:10:46;;;;;;;22.98;14.07;;;11.40;79.00;;;;;;4996476;28;20372;-71
2021/12/22 09:13:13;;;;;;;22.92;14.02;;;11.30;78.10;;;;;;5013904;28;20464;-69
2021/12/22 09:15:39;;;;;;;21.17;14.10;;;11.40;78.00;;;;;;4996470;28;20490;-70
2021/12/22 09:18:05;;;;;;;17.05;12.30;;;11.40;77.60;;;;;;5013553;28;20192;-71
2021/12/22 09:20:31;;;;;;;20.27;12.88;;;11.50;77.20;;;;;;4996164;28;20143;-70
2021/12/22 09:22:57;;;;;;;14.07;10.90;;;11.50;76.70;;;;;;5013772;28;20060;-70
2021/12/22 09:25:23;;;;;;;23.25;11.40;;;11.50;76.50;;;;;;4996167;28;20102;-69
2021/12/22 09:27:48;;;;;;;18.05;12.60;;;11.50;75.80;;;;;;4996100;28;20037;-69
2021/12/22 09:30:14;;;;;;;18.95;11.90;;;11.60;76.10;;;;;;5013575;28;20748;-72
2021/12/22 09:32:40;;;;;;;16.98;12.18;;;11.60;75.50;;;;;;5013679;28;20017;-70
2021/12/22 09:35:08;;;;;;;17.45;12.52;;;11.60;75.70;;;;;;5013586;28;20399;-70
2021/12/22 09:37:34;;;;;;;17.92;12.85;;;11.70;75.90;;;;;;4995740;28;20026;-72
2021/12/22 09:40:01;;;;;;;18.02;12.35;;;11.70;75.50;;;;;;5013738;28;20014;-69
2021/12/22 09:42:27;;;;;;;17.33;13.00;;;11.80;75.60;;;;;;4996057;28;20054;-73
2021/12/22 09:44:53;;;;;;;20.15;12.20;;;11.80;75.50;;;;;;5013888;28;20030;-73
2021/12/22 09:47:27;;;;;;;15.52;12.02;;;11.80;75.70;;;;;;5013384;28;20044;-71
2021/12/22 09:50:08;;;;;;;22.13;13.23;;;11.80;75.90;;;;;;5013459;28;20052;-73
2021/12/22 09:52:36;;;;;;;19.95;12.27;;;11.90;76.30;;;;;;5014058;28;20494;-70
2021/12/22 09:55:04;;;;;;;25.27;13.85;;;11.90;75.70;;;;;;5013743;28;20022;-70
2021/12/22 09:57:30;;;;;;;17.27;12.23;;;11.90;75.70;;;;;;5013657;28;20022;-71
2021/12/22 09:59:58;;;;;;;16.90;11.80;;;12.00;75.60;;;;;;4995473;28;20072;-71
2021/12/22 10:02:29;;;;;;;21.40;11.75;;;12.00;75.30;;;;;;5013527;28;20026;-70
2021/12/22 10:04:58;;;;;;;18.83;11.95;;;12.00;75.00;;;;;;5013617;28;20026;-70
2021/12/22 10:07:27;;;;;;;16.45;11.80;;;12.10;74.80;;;;;;5013694;28;20056;-72
2021/12/22 10:09:55;;;;;;;17.08;12.63;;;12.10;74.50;;;;;;5013327;28;20152;-69
2021/12/22 10:12:26;;;;;;;26.58;13.15;;;12.10;74.50;;;;;;5013445;28;20030;-70
2021/12/22 10:14:55;;;;;;;18.65;13.25;;;12.20;74.70;;;;;;5013300;28;20014;-71
2021/12/22 10:17:40;;;;;;;20.30;13.63;;;12.20;74.90;;;;;;5013641;28;20084;-71
2021/12/22 10:20:15;;;;;;;18.17;13.27;;;12.30;75.10;;;;;;5013619;28;20030;-70
2021/12/22 10:22:50;;;;;;;17.65;13.27;;;12.30;75.40;;;;;;5014076;28;20407;-72
2021/12/22 10:25:22;;;;;;;20.05;12.60;;;12.40;75.50;;;;;;4996434;28;20041;-69
2021/12/22 10:28:06;;;;;;;18.17;12.95;;;12.40;75.50;;;;;;5013495;28;20026;-70
2021/12/22 10:30:35;;;;;;;18.87;13.70;;;12.40;75.70;;;;;;5013056;28;20491;-70
2021/12/22 10:33:14;;;;;;;18.27;13.40;;;12.40;76.00;;;;;;5013155;28;20288;-70
2021/12/22 10:35:42;;;;;;;23.73;12.85;;;12.40;76.30;;;;;;5013013;28;20018;-70
2021/12/22 10:38:10;;;;;;;23.23;14.10;;;12.50;76.90;;;;;;5012561;28;20371;-71
2021/12/22 10:40:51;;;;;;;24.02;13.82;;;12.50;77.20;;;;;;5012698;28;20113;-70
2021/12/22 10:43:29;;;;;;;23.67;15.48;;;12.50;78.10;;;;;;5012788;28;20033;-72
2021/12/22 10:46:03;;;;;;;20.13;13.20;;;12.60;78.60;;;;;;5013132;28;20100;-70
2021/12/22 10:51:36;;;;;;;19.23;14.98;;;12.60;78.20;;;;;;5012995;28;20482;-74
2021/12/22 10:54:08;;;;;;;19.20;15.15;;;12.60;78.80;;;;;;5014165;28;20475;-71
2021/12/22 10:56:46;;;;;;;26.30;15.38;;;12.60;79.70;;;;;;5016555;28;20455;-71
2021/12/22 10:59:16;;;;;;;20.75;16.60;;;12.60;81.00;;;;;;5016982;28;20049;-71
2021/12/22 11:01:54;;;;;;;25.23;16.73;;;12.60;81.30;;;;;;5016845;28;20022;-71
2021/12/22 11:04:30;;;;;;;24.00;18.35;;;12.60;81.90;;;;;;5016729;28;20034;-72
2021/12/22 11:07:12;;;;;;;25.42;19.35;;;12.50;82.90;;;;;;4999305;28;20054;-70
2021/12/22 11:09:38;;;;;;;29.63;20.02;;;12.40;83.90;;;;;;5016643;28;20026;-69
2021/12/22 11:12:05;;;;;;;25.48;19.63;;;12.40;84.20;;;;;;4999016;28;20336;-71
2021/12/22 11:14:38;;;;;;;27.30;18.55;;;12.40;84.60;;;;;;5016514;28;20036;-69
2021/12/22 11:17:07;;;;;;;24.10;17.77;;;12.40;84.80;;;;;;5016646;28;20375;-70
2021/12/22 11:19:37;;;;;;;22.27;17.05;;;12.40;85.40;;;;;;5015977;28;20026;-70
2021/12/22 11:22:14;;;;;;;25.73;16.80;;;12.40;85.40;;;;;;5016316;28;20131;-73
2021/12/22 11:24:47;;;;;;;22.08;16.15;;;12.40;85.80;;;;;;5017156;28;20017;-73
2021/12/22 11:27:20;;;;;;;22.83;16.73;;;12.40;85.80;;;;;;5016210;28;20026;-69
2021/12/22 11:29:51;;;;;;;13.68;11.65;;;12.50;85.30;;;;;;5016230;28;20097;-71
2021/12/22 11:32:19;;;;;;;20.77;14.70;;;12.50;85.40;;;;;;5016188;28;20041;-70
2021/12/22 11:34:49;;;;;;;22.67;16.20;;;12.40;85.00;;;;;;5015918;28;20108;-69
2021/12/22 11:37:15;;;;;;;25.50;16.83;;;12.40;84.80;;;;;;5016203;28;20083;-70
2021/12/22 11:39:41;;;;;;;23.85;17.00;;;12.50;84.70;;;;;;5015752;28;20021;-71
2021/12/22 11:42:09;;;;;;;23.60;17.27;;;12.40;84.10;;;;;;5015662;28;20062;-72
2021/12/22 11:44:38;;;;;;;25.52;18.00;;;12.40;84.00;;;;;;5015747;28;20045;-70
2021/12/22 11:47:07;;;;;;;24.95;15.75;;;12.50;83.70;;;;;;5015927;28;20033;-70
2021/12/22 11:49:37;;;;;;;24.33;16.65;;;12.50;83.60;;;;;;4998348;28;20056;-69
2021/12/22 11:52:27;;;;;;;23.73;15.05;;;12.50;83.00;;;;;;4997971;28;20041;-70
2021/12/22 11:55:36;;;;;;;24.60;15.07;;;12.50;82.30;;;;;;5015436;28;20022;-69
2021/12/22 11:58:17;;;;;;;24.58;15.15;;;12.50;82.00;;;;;;4978063;28;20038;-71
2021/12/22 12:00:55;;;;;;;19.50;14.60;;;12.60;82.00;;;;;;5015380;28;20494;-69
2021/12/22 12:03:34;;;;;;;19.58;14.50;;;12.70;81.70;;;;;;5015060;28;20048;-69
2021/12/22 12:06:19;;;;;;;19.45;13.50;;;12.80;81.50;;;;;;5014066;28;20048;-70
2021/12/22 12:08:56;;;;;;;20.13;13.40;;;12.90;79.90;;;;;;5014819;28;20455;-73
2021/12/22 12:11:36;;;;;;;20.58;13.27;;;12.90;79.60;;;;;;5015071;28;20034;-69
2021/12/22 12:14:08;;;;;;;21.48;12.68;;;12.90;79.20;;;;;;5015151;28;20028;-71
2021/12/22 12:22:27;;;;;;;19.42;13.95;;;12.90;79.30;;;;;;5015429;28;20506;-72
2021/12/22 12:25:12;;;;;;;17.75;13.15;;;13.00;79.20;;;;;;5014755;28;20051;-70
2021/12/22 12:27:44;;;;;;;23.98;14.63;;;13.00;79.60;;;;;;5014689;28;20034;-71
2021/12/22 12:30:20;;;;;;;19.05;13.75;;;13.00;79.40;;;;;;5014606;28;20133;-72
2021/12/22 12:32:46;;;;;;;19.00;13.20;;;13.10;79.30;;;;;;5014571;28;20041;-68
2021/12/22 12:35:28;;;;;;;19.88;13.38;;;13.10;78.40;;;;;;5014826;28;20029;-70
2021/12/22 12:38:00;;;;;;;16.20;12.20;;;13.10;78.10;;;;;;5014286;28;20109;-71
2021/12/22 12:40:55;;;;;;;18.48;12.20;;;13.20;77.90;;;;;;5014634;28;20038;-70
2021/12/22 12:43:48;;;;;;;18.40;12.65;;;13.20;78.00;;;;;;5005744;28;20060;-70
2021/12/22 12:48:47;;;;;;;17.58;11.85;;;13.30;77.00;;;;;;5014581;28;20030;-71
2021/12/22 12:51:17;;;;;;;15.27;12.77;;;13.40;76.80;;;;;;5014445;28;20474;-70
2021/12/22 12:53:46;;;;;;;15.02;11.95;;;13.50;76.30;;;;;;5014321;28;20033;-70
2021/12/22 12:56:13;;;;;;;16.55;12.60;;;13.60;75.60;;;;;;5014537;28;20501;-71
2021/12/22 12:58:52;;;;;;;15.13;12.50;;;13.70;75.20;;;;;;5014232;28;20053;-71
2021/12/22 13:01:18;;;;;;;24.13;12.65;;;13.70;74.50;;;;;;5014390;28;20480;-70
2021/12/22 13:03:48;;;;;;;22.20;12.45;;;13.70;74.90;;;;;;5014312;28;20451;-71
2021/12/22 13:06:14;;;;;;;16.10;12.15;;;13.70;74.90;;;;;;5014029;28;20026;-70
2021/12/22 13:08:40;;;;;;;16.50;12.25;;;13.70;74.90;;;;;;4996316;28;20102;-73